sensor_id;sensor_type;location;lat;lon;timestamp;P1;durP1;ratioP1;P2;durP2;ratioP2
13404;SDS011;6773;51.192;7.024;2023-02-28T00:00:17;3.23;;;2.90;;
13404;SDS011;6773;51.192;7.024;2023-02-28T00:02:44;4.60;;;3.00;;
13404;SDS011;6773;51.192;7.024;2023-02-28T00:05:11;4.33;;;3.23;;
13404;SDS011;6773;51.192;7.024;2023-02-28T00:07:38;4.97;;;2.90;;
13404;SDS011;6773;51.192;7.024;2023-02-28T00:10:05;4.80;;;3.33;;
13404;SDS011;6773;51.192;7.024;2023-02-28T00:12:35;4.27;;;3.30;;
13404;SDS011;6773;51.192;7.024;2023-02-28T00:15:02;5.40;;;3.30;;
13404;SDS011;6773;51.192;7.024;2023-02-28T00:17:31;6.10;;;2.97;;
13404;SDS011;6773;51.192;7.024;2023-02-28T00:19:56;3.67;;;3.10;;
13404;SDS011;6773;51.192;7.024;2023-02-28T00:22:26;4.03;;;2.93;;
13404;SDS011;6773;51.192;7.024;2023-02-28T00:24:52;3.53;;;3.03;;
13404;SDS011;6773;51.192;7.024;2023-02-28T00:27:17;3.20;;;2.90;;
13404;SDS011;6773;51.192;7.024;2023-02-28T00:29:43;3.40;;;3.20;;
13404;SDS011;6773;51.192;7.024;2023-02-28T00:32:11;4.87;;;3.20;;
13404;SDS011;6773;51.192;7.024;2023-02-28T00:34:37;3.27;;;2.97;;
13404;SDS011;6773;51.192;7.024;2023-02-28T00:37:04;3.57;;;3.27;;
13404;SDS011;6773;51.192;7.024;2023-02-28T00:39:30;4.83;;;3.23;;
13404;SDS011;6773;51.192;7.024;2023-02-28T00:41:57;3.43;;;2.83;;
13404;SDS011;6773;51.192;7.024;2023-02-28T00:44:23;3.23;;;3.03;;
13404;SDS011;6773;51.192;7.024;2023-02-28T00:46:49;3.50;;;3.20;;
13404;SDS011;6773;51.192;7.024;2023-02-28T00:49:15;3.83;;;3.20;;
13404;SDS011;6773;51.192;7.024;2023-02-28T00:51:41;3.43;;;3.13;;
13404;SDS011;6773;51.192;7.024;2023-02-28T00:54:07;4.93;;;3.30;;
13404;SDS011;6773;51.192;7.024;2023-02-28T00:56:32;4.50;;;3.70;;
13404;SDS011;6773;51.192;7.024;2023-02-28T00:58:58;4.30;;;3.70;;
13404;SDS011;6773;51.192;7.024;2023-02-28T01:01:23;3.77;;;3.30;;
13404;SDS011;6773;51.192;7.024;2023-02-28T01:03:49;3.87;;;3.20;;
13404;SDS011;6773;51.192;7.024;2023-02-28T01:06:14;3.30;;;2.83;;
13404;SDS011;6773;51.192;7.024;2023-02-28T01:08:40;3.43;;;3.13;;
13404;SDS011;6773;51.192;7.024;2023-02-28T01:11:12;4.63;;;3.20;;
13404;SDS011;6773;51.192;7.024;2023-02-28T01:13:39;3.50;;;3.20;;
13404;SDS011;6773;51.192;7.024;2023-02-28T01:16:05;4.10;;;3.70;;
13404;SDS011;6773;51.192;7.024;2023-02-28T01:18:31;3.60;;;3.30;;
13404;SDS011;6773;51.192;7.024;2023-02-28T01:20:57;4.00;;;3.43;;
13404;SDS011;6773;51.192;7.024;2023-02-28T01:23:23;5.83;;;3.47;;
13404;SDS011;6773;51.192;7.024;2023-02-28T01:25:49;4.30;;;3.17;;
13404;SDS011;6773;51.192;7.024;2023-02-28T01:28:16;4.23;;;3.33;;
13404;SDS011;6773;51.192;7.024;2023-02-28T01:30:42;3.73;;;3.07;;
13404;SDS011;6773;51.192;7.024;2023-02-28T01:33:07;3.90;;;3.60;;
13404;SDS011;6773;51.192;7.024;2023-02-28T01:35:33;4.13;;;2.93;;
13404;SDS011;6773;51.192;7.024;2023-02-28T01:38:01;3.57;;;3.27;;
13404;SDS011;6773;51.192;7.024;2023-02-28T01:40:27;5.70;;;3.87;;
13404;SDS011;6773;51.192;7.024;2023-02-28T01:42:53;4.43;;;3.57;;
13404;SDS011;6773;51.192;7.024;2023-02-28T01:47:52;3.40;;;3.10;;
13404;SDS011;6773;51.192;7.024;2023-02-28T01:50:24;10.20;;;3.77;;
13404;SDS011;6773;51.192;7.024;2023-02-28T01:52:53;4.10;;;3.70;;
13404;SDS011;6773;51.192;7.024;2023-02-28T01:55:22;3.13;;;2.87;;
13404;SDS011;6773;51.192;7.024;2023-02-28T01:57:54;4.17;;;3.60;;
13404;SDS011;6773;51.192;7.024;2023-02-28T02:00:24;3.27;;;2.97;;
13404;SDS011;6773;51.192;7.024;2023-02-28T02:02:55;4.17;;;3.80;;
13404;SDS011;6773;51.192;7.024;2023-02-28T02:05:25;3.90;;;3.50;;
13404;SDS011;6773;51.192;7.024;2023-02-28T02:07:57;3.90;;;3.47;;
13404;SDS011;6773;51.192;7.024;2023-02-28T02:13:00;5.17;;;3.33;;
13404;SDS011;6773;51.192;7.024;2023-02-28T02:15:34;3.43;;;3.17;;
13404;SDS011;6773;51.192;7.024;2023-02-28T02:18:17;3.63;;;3.33;;
13404;SDS011;6773;51.192;7.024;2023-02-28T02:20:58;3.37;;;2.97;;
13404;SDS011;6773;51.192;7.024;2023-02-28T02:26:51;4.17;;;3.77;;
13404;SDS011;6773;51.192;7.024;2023-02-28T02:38:14;4.63;;;3.70;;
13404;SDS011;6773;51.192;7.024;2023-02-28T02:41:23;5.70;;;4.10;;
13404;SDS011;6773;51.192;7.024;2023-02-28T02:43:56;5.33;;;4.33;;
13404;SDS011;6773;51.192;7.024;2023-02-28T02:46:30;6.30;;;4.40;;
13404;SDS011;6773;51.192;7.024;2023-02-28T02:49:00;4.80;;;4.40;;
13404;SDS011;6773;51.192;7.024;2023-02-28T02:51:30;6.23;;;4.20;;
13404;SDS011;6773;51.192;7.024;2023-02-28T02:56:42;5.43;;;4.67;;
13404;SDS011;6773;51.192;7.024;2023-02-28T02:59:11;5.23;;;4.67;;
13404;SDS011;6773;51.192;7.024;2023-02-28T03:01:39;7.33;;;4.73;;
13404;SDS011;6773;51.192;7.024;2023-02-28T03:04:09;6.40;;;4.93;;
13404;SDS011;6773;51.192;7.024;2023-02-28T03:06:39;5.83;;;4.87;;
13404;SDS011;6773;51.192;7.024;2023-02-28T03:09:05;5.93;;;4.47;;
13404;SDS011;6773;51.192;7.024;2023-02-28T03:11:30;6.43;;;4.77;;
13404;SDS011;6773;51.192;7.024;2023-02-28T03:25:13;7.23;;;5.17;;
13404;SDS011;6773;51.192;7.024;2023-02-28T03:32:55;8.87;;;4.57;;
13404;SDS011;6773;51.192;7.024;2023-02-28T03:35:26;4.70;;;4.30;;
13404;SDS011;6773;51.192;7.024;2023-02-28T03:38:03;5.20;;;4.40;;
13404;SDS011;6773;51.192;7.024;2023-02-28T03:40:51;5.43;;;4.93;;
13404;SDS011;6773;51.192;7.024;2023-02-28T03:43:27;5.83;;;4.33;;
13404;SDS011;6773;51.192;7.024;2023-02-28T03:45:56;6.87;;;4.37;;
13404;SDS011;6773;51.192;7.024;2023-02-28T03:48:49;4.37;;;3.83;;
13404;SDS011;6773;51.192;7.024;2023-02-28T03:51:21;5.77;;;4.03;;
13404;SDS011;6773;51.192;7.024;2023-02-28T03:53:53;4.30;;;3.87;;
13404;SDS011;6773;51.192;7.024;2023-02-28T03:56:25;4.27;;;3.70;;
13404;SDS011;6773;51.192;7.024;2023-02-28T04:01:47;5.93;;;3.77;;
13404;SDS011;6773;51.192;7.024;2023-02-28T04:04:14;4.97;;;3.50;;
13404;SDS011;6773;51.192;7.024;2023-02-28T04:06:41;3.30;;;3.00;;
13404;SDS011;6773;51.192;7.024;2023-02-28T04:09:08;3.83;;;3.53;;
13404;SDS011;6773;51.192;7.024;2023-02-28T04:14:11;3.30;;;3.10;;
13404;SDS011;6773;51.192;7.024;2023-02-28T04:16:38;5.23;;;3.67;;
13404;SDS011;6773;51.192;7.024;2023-02-28T04:19:06;3.87;;;3.47;;
13404;SDS011;6773;51.192;7.024;2023-02-28T04:22:07;3.83;;;3.50;;
13404;SDS011;6773;51.192;7.024;2023-02-28T04:24:25;3.77;;;3.30;;
13404;SDS011;6773;51.192;7.024;2023-02-28T04:26:53;3.70;;;3.40;;
13404;SDS011;6773;51.192;7.024;2023-02-28T04:29:21;7.27;;;3.73;;
13404;SDS011;6773;51.192;7.024;2023-02-28T04:31:49;3.33;;;3.03;;
13404;SDS011;6773;51.192;7.024;2023-02-28T04:34:16;3.50;;;3.30;;
13404;SDS011;6773;51.192;7.024;2023-02-28T04:36:43;3.17;;;2.93;;
13404;SDS011;6773;51.192;7.024;2023-02-28T04:39:10;5.60;;;3.07;;
13404;SDS011;6773;51.192;7.024;2023-02-28T04:41:36;3.23;;;2.93;;
13404;SDS011;6773;51.192;7.024;2023-02-28T04:44:03;3.60;;;3.30;;
13404;SDS011;6773;51.192;7.024;2023-02-28T04:46:29;3.30;;;3.10;;
13404;SDS011;6773;51.192;7.024;2023-02-28T04:48:55;3.20;;;3.00;;
13404;SDS011;6773;51.192;7.024;2023-02-28T04:51:21;3.20;;;3.00;;
13404;SDS011;6773;51.192;7.024;2023-02-28T04:53:47;4.83;;;3.03;;
13404;SDS011;6773;51.192;7.024;2023-02-28T04:56:14;3.33;;;3.03;;
13404;SDS011;6773;51.192;7.024;2023-02-28T04:58:41;3.50;;;3.30;;
13404;SDS011;6773;51.192;7.024;2023-02-28T05:03:50;3.43;;;3.07;;
13404;SDS011;6773;51.192;7.024;2023-02-28T05:06:18;3.77;;;3.30;;
13404;SDS011;6773;51.192;7.024;2023-02-28T05:08:45;3.80;;;2.90;;
13404;SDS011;6773;51.192;7.024;2023-02-28T05:14:09;3.10;;;2.90;;
13404;SDS011;6773;51.192;7.024;2023-02-28T05:16:36;4.37;;;3.20;;
13404;SDS011;6773;51.192;7.024;2023-02-28T05:19:02;4.60;;;3.40;;
13404;SDS011;6773;51.192;7.024;2023-02-28T05:24:00;3.33;;;3.07;;
13404;SDS011;6773;51.192;7.024;2023-02-28T05:26:27;4.83;;;3.40;;
13404;SDS011;6773;51.192;7.024;2023-02-28T05:28:53;3.20;;;3.00;;
13404;SDS011;6773;51.192;7.024;2023-02-28T05:31:19;3.50;;;3.20;;
13404;SDS011;6773;51.192;7.024;2023-02-28T05:33:45;4.00;;;3.20;;
13404;SDS011;6773;51.192;7.024;2023-02-28T05:36:11;3.30;;;3.00;;
13404;SDS011;6773;51.192;7.024;2023-02-28T05:38:37;3.50;;;3.10;;
13404;SDS011;6773;51.192;7.024;2023-02-28T05:41:09;3.50;;;3.20;;
13404;SDS011;6773;51.192;7.024;2023-02-28T05:43:36;3.77;;;3.40;;
13404;SDS011;6773;51.192;7.024;2023-02-28T05:46:06;3.40;;;3.20;;
13404;SDS011;6773;51.192;7.024;2023-02-28T05:48:36;3.60;;;3.30;;
13404;SDS011;6773;51.192;7.024;2023-02-28T05:51:03;3.33;;;3.10;;
13404;SDS011;6773;51.192;7.024;2023-02-28T05:53:29;3.20;;;2.90;;
13404;SDS011;6773;51.192;7.024;2023-02-28T05:55:55;3.27;;;3.07;;
13404;SDS011;6773;51.192;7.024;2023-02-28T05:58:21;3.87;;;3.57;;
13404;SDS011;6773;51.192;7.024;2023-02-28T06:00:48;3.73;;;3.43;;
13404;SDS011;6773;51.192;7.024;2023-02-28T06:03:14;3.97;;;3.53;;
13404;SDS011;6773;51.192;7.024;2023-02-28T06:05:39;3.43;;;3.23;;
13404;SDS011;6773;51.192;7.024;2023-02-28T06:08:05;5.27;;;3.53;;
13404;SDS011;6773;51.192;7.024;2023-02-28T06:10:32;4.50;;;2.90;;
13404;SDS011;6773;51.192;7.024;2023-02-28T06:13:02;3.43;;;3.13;;
13404;SDS011;6773;51.192;7.024;2023-02-28T06:15:28;3.53;;;3.17;;
13404;SDS011;6773;51.192;7.024;2023-02-28T06:17:54;3.50;;;3.20;;
13404;SDS011;6773;51.192;7.024;2023-02-28T06:20:24;3.17;;;2.87;;
13404;SDS011;6773;51.192;7.024;2023-02-28T06:22:53;3.30;;;3.10;;
13404;SDS011;6773;51.192;7.024;2023-02-28T06:25:20;4.00;;;3.07;;
13404;SDS011;6773;51.192;7.024;2023-02-28T06:27:46;3.83;;;3.53;;
13404;SDS011;6773;51.192;7.024;2023-02-28T06:30:13;3.17;;;2.97;;
13404;SDS011;6773;51.192;7.024;2023-02-28T06:32:38;3.40;;;3.07;;
13404;SDS011;6773;51.192;7.024;2023-02-28T06:35:04;3.17;;;2.97;;
13404;SDS011;6773;51.192;7.024;2023-02-28T06:37:31;3.50;;;3.20;;
13404;SDS011;6773;51.192;7.024;2023-02-28T06:39:57;3.23;;;3.03;;
13404;SDS011;6773;51.192;7.024;2023-02-28T06:42:23;3.70;;;3.40;;
13404;SDS011;6773;51.192;7.024;2023-02-28T06:44:56;3.00;;;2.80;;
13404;SDS011;6773;51.192;7.024;2023-02-28T06:47:22;3.53;;;3.20;;
13404;SDS011;6773;51.192;7.024;2023-02-28T06:49:48;3.33;;;3.10;;
13404;SDS011;6773;51.192;7.024;2023-02-28T06:52:14;3.10;;;2.90;;
13404;SDS011;6773;51.192;7.024;2023-02-28T06:54:40;3.17;;;2.97;;
13404;SDS011;6773;51.192;7.024;2023-02-28T06:57:06;3.23;;;2.93;;
13404;SDS011;6773;51.192;7.024;2023-02-28T06:59:32;3.30;;;3.00;;
13404;SDS011;6773;51.192;7.024;2023-02-28T07:02:00;3.13;;;2.87;;
13404;SDS011;6773;51.192;7.024;2023-02-28T07:04:27;5.07;;;3.20;;
13404;SDS011;6773;51.192;7.024;2023-02-28T07:06:52;3.10;;;2.90;;
13404;SDS011;6773;51.192;7.024;2023-02-28T07:09:21;3.13;;;2.93;;
13404;SDS011;6773;51.192;7.024;2023-02-28T07:11:46;2.63;;;2.50;;
13404;SDS011;6773;51.192;7.024;2023-02-28T07:14:12;3.60;;;2.90;;
13404;SDS011;6773;51.192;7.024;2023-02-28T07:16:37;3.50;;;3.20;;
13404;SDS011;6773;51.192;7.024;2023-02-28T07:19:03;3.77;;;3.17;;
13404;SDS011;6773;51.192;7.024;2023-02-28T07:21:29;3.10;;;2.80;;
13404;SDS011;6773;51.192;7.024;2023-02-28T07:23:55;2.83;;;2.63;;
13404;SDS011;6773;51.192;7.024;2023-02-28T07:26:21;2.70;;;2.50;;
13404;SDS011;6773;51.192;7.024;2023-02-28T07:28:47;3.00;;;2.80;;
13404;SDS011;6773;51.192;7.024;2023-02-28T07:31:14;3.40;;;2.73;;
13404;SDS011;6773;51.192;7.024;2023-02-28T07:33:41;4.97;;;2.70;;
13404;SDS011;6773;51.192;7.024;2023-02-28T07:36:08;2.97;;;2.77;;
13404;SDS011;6773;51.192;7.024;2023-02-28T07:38:40;2.90;;;2.67;;
13404;SDS011;6773;51.192;7.024;2023-02-28T07:41:07;2.97;;;2.77;;
13404;SDS011;6773;51.192;7.024;2023-02-28T07:43:33;2.50;;;2.30;;
13404;SDS011;6773;51.192;7.024;2023-02-28T07:46:04;3.17;;;2.50;;
13404;SDS011;6773;51.192;7.024;2023-02-28T07:48:31;3.20;;;2.90;;
13404;SDS011;6773;51.192;7.024;2023-02-28T07:50:57;3.00;;;2.80;;
13404;SDS011;6773;51.192;7.024;2023-02-28T07:53:23;2.80;;;2.60;;
13404;SDS011;6773;51.192;7.024;2023-02-28T07:55:50;2.70;;;2.50;;
13404;SDS011;6773;51.192;7.024;2023-02-28T07:58:15;2.80;;;2.60;;
13404;SDS011;6773;51.192;7.024;2023-02-28T08:00:41;3.47;;;2.70;;
13404;SDS011;6773;51.192;7.024;2023-02-28T08:03:08;2.63;;;2.43;;
13404;SDS011;6773;51.192;7.024;2023-02-28T08:05:40;2.80;;;2.60;;
13404;SDS011;6773;51.192;7.024;2023-02-28T08:08:06;2.53;;;2.33;;
13404;SDS011;6773;51.192;7.024;2023-02-28T08:10:33;2.80;;;2.60;;
13404;SDS011;6773;51.192;7.024;2023-02-28T08:12:59;2.93;;;2.40;;
13404;SDS011;6773;51.192;7.024;2023-02-28T08:15:24;2.70;;;2.50;;
13404;SDS011;6773;51.192;7.024;2023-02-28T08:17:50;4.07;;;2.83;;
13404;SDS011;6773;51.192;7.024;2023-02-28T08:20:16;3.00;;;2.40;;
13404;SDS011;6773;51.192;7.024;2023-02-28T08:22:42;2.63;;;2.40;;
13404;SDS011;6773;51.192;7.024;2023-02-28T08:25:08;2.63;;;2.43;;
13404;SDS011;6773;51.192;7.024;2023-02-28T08:27:34;2.90;;;2.70;;
13404;SDS011;6773;51.192;7.024;2023-02-28T08:30:00;2.83;;;2.63;;
13404;SDS011;6773;51.192;7.024;2023-02-28T08:32:26;2.70;;;2.50;;
13404;SDS011;6773;51.192;7.024;2023-02-28T08:34:51;2.73;;;2.17;;
13404;SDS011;6773;51.192;7.024;2023-02-28T08:37:17;2.73;;;2.37;;
13404;SDS011;6773;51.192;7.024;2023-02-28T08:39:43;3.23;;;2.33;;
13404;SDS011;6773;51.192;7.024;2023-02-28T08:42:08;2.40;;;2.20;;
13404;SDS011;6773;51.192;7.024;2023-02-28T08:44:34;3.00;;;2.27;;
13404;SDS011;6773;51.192;7.024;2023-02-28T08:47:00;2.83;;;2.37;;
13404;SDS011;6773;51.192;7.024;2023-02-28T08:49:25;2.97;;;2.17;;
13404;SDS011;6773;51.192;7.024;2023-02-28T08:51:51;2.67;;;2.30;;
13404;SDS011;6773;51.192;7.024;2023-02-28T08:54:17;2.50;;;2.30;;
13404;SDS011;6773;51.192;7.024;2023-02-28T08:56:44;2.60;;;2.40;;
13404;SDS011;6773;51.192;7.024;2023-02-28T08:59:12;2.20;;;2.00;;
13404;SDS011;6773;51.192;7.024;2023-02-28T09:01:38;2.43;;;2.20;;
13404;SDS011;6773;51.192;7.024;2023-02-28T09:04:04;2.40;;;2.20;;
13404;SDS011;6773;51.192;7.024;2023-02-28T09:06:32;2.50;;;2.30;;
13404;SDS011;6773;51.192;7.024;2023-02-28T09:08:58;2.13;;;2.03;;
13404;SDS011;6773;51.192;7.024;2023-02-28T09:11:24;2.40;;;2.20;;
13404;SDS011;6773;51.192;7.024;2023-02-28T09:13:50;4.20;;;2.37;;
13404;SDS011;6773;51.192;7.024;2023-02-28T09:16:16;2.30;;;2.10;;
13404;SDS011;6773;51.192;7.024;2023-02-28T09:18:42;2.90;;;2.57;;
13404;SDS011;6773;51.192;7.024;2023-02-28T09:21:10;2.60;;;2.40;;
13404;SDS011;6773;51.192;7.024;2023-02-28T09:23:41;2.90;;;2.10;;
13404;SDS011;6773;51.192;7.024;2023-02-28T09:26:12;2.20;;;2.00;;
13404;SDS011;6773;51.192;7.024;2023-02-28T09:28:45;3.20;;;2.70;;
13404;SDS011;6773;51.192;7.024;2023-02-28T09:31:16;2.77;;;2.07;;
13404;SDS011;6773;51.192;7.024;2023-02-28T09:33:47;2.13;;;2.03;;
13404;SDS011;6773;51.192;7.024;2023-02-28T09:36:14;2.30;;;2.00;;
13404;SDS011;6773;51.192;7.024;2023-02-28T09:38:40;2.07;;;1.90;;
13404;SDS011;6773;51.192;7.024;2023-02-28T09:43:47;2.20;;;2.00;;
13404;SDS011;6773;51.192;7.024;2023-02-28T09:49:02;2.73;;;2.00;;
13404;SDS011;6773;51.192;7.024;2023-02-28T09:54:15;2.47;;;2.20;;
13404;SDS011;6773;51.192;7.024;2023-02-28T09:56:44;2.40;;;2.00;;
13404;SDS011;6773;51.192;7.024;2023-02-28T10:02:01;3.53;;;2.23;;
13404;SDS011;6773;51.192;7.024;2023-02-28T10:04:51;2.43;;;2.13;;
13404;SDS011;6773;51.192;7.024;2023-02-28T10:09:49;2.47;;;2.27;;
13404;SDS011;6773;51.192;7.024;2023-02-28T10:12:18;3.90;;;1.90;;
13404;SDS011;6773;51.192;7.024;2023-02-28T10:14:46;3.47;;;2.07;;
13404;SDS011;6773;51.192;7.024;2023-02-28T10:17:15;1.93;;;1.83;;
13404;SDS011;6773;51.192;7.024;2023-02-28T10:22:38;2.37;;;2.10;;
13404;SDS011;6773;51.192;7.024;2023-02-28T10:25:20;2.40;;;2.20;;
13404;SDS011;6773;51.192;7.024;2023-02-28T10:27:49;3.23;;;2.13;;
13404;SDS011;6773;51.192;7.024;2023-02-28T10:30:18;2.57;;;2.20;;
13404;SDS011;6773;51.192;7.024;2023-02-28T10:32:47;2.40;;;2.20;;
13404;SDS011;6773;51.192;7.024;2023-02-28T10:35:22;2.50;;;2.30;;
13404;SDS011;6773;51.192;7.024;2023-02-28T10:37:50;2.20;;;2.00;;
13404;SDS011;6773;51.192;7.024;2023-02-28T10:40:25;2.60;;;2.17;;
13404;SDS011;6773;51.192;7.024;2023-02-28T10:43:03;2.47;;;2.20;;
13404;SDS011;6773;51.192;7.024;2023-02-28T10:45:31;2.53;;;2.33;;
13404;SDS011;6773;51.192;7.024;2023-02-28T10:58:46;2.37;;;2.17;;
13404;SDS011;6773;51.192;7.024;2023-02-28T11:01:16;2.03;;;1.93;;
13404;SDS011;6773;51.192;7.024;2023-02-28T11:03:45;2.33;;;2.20;;
13404;SDS011;6773;51.192;7.024;2023-02-28T11:06:21;3.20;;;2.37;;
13404;SDS011;6773;51.192;7.024;2023-02-28T11:08:58;2.23;;;2.00;;
13404;SDS011;6773;51.192;7.024;2023-02-28T11:11:26;2.10;;;1.90;;
13404;SDS011;6773;51.192;7.024;2023-02-28T11:13:57;2.10;;;2.00;;
13404;SDS011;6773;51.192;7.024;2023-02-28T11:16:36;4.20;;;2.07;;
13404;SDS011;6773;51.192;7.024;2023-02-28T11:19:04;2.10;;;1.93;;
13404;SDS011;6773;51.192;7.024;2023-02-28T11:21:40;2.10;;;1.90;;
13404;SDS011;6773;51.192;7.024;2023-02-28T11:26:48;2.23;;;1.90;;
13404;SDS011;6773;51.192;7.024;2023-02-28T11:31:39;2.10;;;1.90;;
13404;SDS011;6773;51.192;7.024;2023-02-28T11:34:21;3.63;;;2.00;;
13404;SDS011;6773;51.192;7.024;2023-02-28T11:36:50;2.20;;;1.97;;
13404;SDS011;6773;51.192;7.024;2023-02-28T11:39:18;2.50;;;2.30;;
13404;SDS011;6773;51.192;7.024;2023-02-28T11:47:08;2.30;;;2.10;;
13404;SDS011;6773;51.192;7.024;2023-02-28T11:52:21;2.87;;;2.20;;
13404;SDS011;6773;51.192;7.024;2023-02-28T11:59:50;2.20;;;1.83;;
13404;SDS011;6773;51.192;7.024;2023-02-28T12:02:28;2.30;;;2.10;;
13404;SDS011;6773;51.192;7.024;2023-02-28T12:05:14;2.47;;;2.20;;
13404;SDS011;6773;51.192;7.024;2023-02-28T12:28:42;3.07;;;2.43;;
13404;SDS011;6773;51.192;7.024;2023-02-28T12:31:26;2.30;;;2.10;;
13404;SDS011;6773;51.192;7.024;2023-02-28T12:34:01;3.17;;;2.40;;
13404;SDS011;6773;51.192;7.024;2023-02-28T12:36:31;2.97;;;2.20;;
13404;SDS011;6773;51.192;7.024;2023-02-28T12:39:22;2.60;;;2.00;;
13404;SDS011;6773;51.192;7.024;2023-02-28T12:41:55;2.67;;;2.47;;
13404;SDS011;6773;51.192;7.024;2023-02-28T12:44:49;4.10;;;2.20;;
13404;SDS011;6773;51.192;7.024;2023-02-28T12:47:40;4.23;;;2.30;;
13404;SDS011;6773;51.192;7.024;2023-02-28T12:50:10;2.27;;;2.07;;
13404;SDS011;6773;51.192;7.024;2023-02-28T12:52:51;2.43;;;2.20;;
13404;SDS011;6773;51.192;7.024;2023-02-28T12:58:11;2.53;;;2.17;;
13404;SDS011;6773;51.192;7.024;2023-02-28T13:09:53;2.67;;;2.47;;
13404;SDS011;6773;51.192;7.024;2023-02-28T13:12:21;3.13;;;2.03;;
13404;SDS011;6773;51.192;7.024;2023-02-28T13:14:48;2.10;;;1.90;;
13404;SDS011;6773;51.192;7.024;2023-02-28T13:17:22;2.20;;;2.07;;
13404;SDS011;6773;51.192;7.024;2023-02-28T13:24:55;2.60;;;2.27;;
13404;SDS011;6773;51.192;7.024;2023-02-28T13:27:31;2.00;;;1.90;;
13404;SDS011;6773;51.192;7.024;2023-02-28T13:38:46;2.83;;;2.20;;
13404;SDS011;6773;51.192;7.024;2023-02-28T13:49:19;2.87;;;2.67;;
13404;SDS011;6773;51.192;7.024;2023-02-28T13:54:24;2.50;;;2.27;;
13404;SDS011;6773;51.192;7.024;2023-02-28T13:57:19;2.40;;;2.20;;
13404;SDS011;6773;51.192;7.024;2023-02-28T13:59:50;2.93;;;2.30;;
13404;SDS011;6773;51.192;7.024;2023-02-28T14:05:18;2.50;;;2.30;;
13404;SDS011;6773;51.192;7.024;2023-02-28T14:07:50;3.93;;;2.53;;
13404;SDS011;6773;51.192;7.024;2023-02-28T14:10:23;3.43;;;2.50;;
13404;SDS011;6773;51.192;7.024;2023-02-28T14:12:57;3.63;;;2.40;;
13404;SDS011;6773;51.192;7.024;2023-02-28T14:29:14;3.17;;;2.40;;
13404;SDS011;6773;51.192;7.024;2023-02-28T14:31:44;4.20;;;2.30;;
13404;SDS011;6773;51.192;7.024;2023-02-28T14:34:40;4.13;;;2.70;;
13404;SDS011;6773;51.192;7.024;2023-02-28T14:37:20;2.83;;;2.20;;
13404;SDS011;6773;51.192;7.024;2023-02-28T14:39:51;2.67;;;2.20;;
13404;SDS011;6773;51.192;7.024;2023-02-28T14:42:32;2.70;;;2.43;;
13404;SDS011;6773;51.192;7.024;2023-02-28T14:45:19;2.73;;;2.47;;
13404;SDS011;6773;51.192;7.024;2023-02-28T14:47:46;2.43;;;2.20;;
13404;SDS011;6773;51.192;7.024;2023-02-28T14:50:17;2.93;;;2.50;;
13404;SDS011;6773;51.192;7.024;2023-02-28T14:52:47;2.37;;;2.17;;
13404;SDS011;6773;51.192;7.024;2023-02-28T14:55:18;2.53;;;2.27;;
13404;SDS011;6773;51.192;7.024;2023-02-28T14:57:53;2.60;;;2.40;;
13404;SDS011;6773;51.192;7.024;2023-02-28T15:00:25;2.67;;;2.10;;
13404;SDS011;6773;51.192;7.024;2023-02-28T15:02:54;2.50;;;2.30;;
13404;SDS011;6773;51.192;7.024;2023-02-28T15:05:33;3.50;;;2.70;;
13404;SDS011;6773;51.192;7.024;2023-02-28T15:08:13;2.60;;;2.40;;
13404;SDS011;6773;51.192;7.024;2023-02-28T15:10:44;2.60;;;2.40;;
13404;SDS011;6773;51.192;7.024;2023-02-28T15:13:35;3.43;;;3.00;;
13404;SDS011;6773;51.192;7.024;2023-02-28T15:16:13;3.57;;;2.73;;
13404;SDS011;6773;51.192;7.024;2023-02-28T15:18:54;2.60;;;2.40;;
13404;SDS011;6773;51.192;7.024;2023-02-28T15:21:36;2.97;;;2.47;;
13404;SDS011;6773;51.192;7.024;2023-02-28T15:24:05;3.10;;;2.80;;
13404;SDS011;6773;51.192;7.024;2023-02-28T15:26:39;3.13;;;2.50;;
13404;SDS011;6773;51.192;7.024;2023-02-28T15:29:17;3.30;;;2.97;;
13404;SDS011;6773;51.192;7.024;2023-02-28T15:31:57;3.20;;;2.70;;
13404;SDS011;6773;51.192;7.024;2023-02-28T15:34:36;2.87;;;2.60;;
13404;SDS011;6773;51.192;7.024;2023-02-28T15:37:25;3.00;;;2.67;;
13404;SDS011;6773;51.192;7.024;2023-02-28T15:39:52;5.40;;;2.80;;
13404;SDS011;6773;51.192;7.024;2023-02-28T15:42:19;2.80;;;2.60;;
13404;SDS011;6773;51.192;7.024;2023-02-28T15:44:46;3.00;;;2.67;;
13404;SDS011;6773;51.192;7.024;2023-02-28T15:47:22;4.77;;;2.90;;
13404;SDS011;6773;51.192;7.024;2023-02-28T15:50:12;3.43;;;2.90;;
13404;SDS011;6773;51.192;7.024;2023-02-28T15:52:39;2.97;;;2.50;;
13404;SDS011;6773;51.192;7.024;2023-02-28T15:55:11;3.27;;;2.70;;
13404;SDS011;6773;51.192;7.024;2023-02-28T15:57:48;4.57;;;3.30;;
13404;SDS011;6773;51.192;7.024;2023-02-28T16:00:18;3.20;;;2.90;;
13404;SDS011;6773;51.192;7.024;2023-02-28T16:02:46;3.80;;;2.83;;
13404;SDS011;6773;51.192;7.024;2023-02-28T16:05:23;4.87;;;3.10;;
13404;SDS011;6773;51.192;7.024;2023-02-28T16:07:55;3.40;;;3.00;;
13404;SDS011;6773;51.192;7.024;2023-02-28T16:10:23;3.00;;;2.70;;
13404;SDS011;6773;51.192;7.024;2023-02-28T16:12:52;4.20;;;3.10;;
13404;SDS011;6773;51.192;7.024;2023-02-28T16:15:24;5.37;;;3.73;;
13404;SDS011;6773;51.192;7.024;2023-02-28T16:17:54;3.20;;;2.80;;
13404;SDS011;6773;51.192;7.024;2023-02-28T16:22:51;3.47;;;2.80;;
13404;SDS011;6773;51.192;7.024;2023-02-28T16:25:19;4.70;;;2.90;;
13404;SDS011;6773;51.192;7.024;2023-02-28T16:27:47;2.87;;;2.60;;
13404;SDS011;6773;51.192;7.024;2023-02-28T16:30:19;3.13;;;2.80;;
13404;SDS011;6773;51.192;7.024;2023-02-28T16:32:48;3.83;;;3.10;;
13404;SDS011;6773;51.192;7.024;2023-02-28T16:35:14;3.37;;;3.07;;
13404;SDS011;6773;51.192;7.024;2023-02-28T16:37:40;3.70;;;3.30;;
13404;SDS011;6773;51.192;7.024;2023-02-28T16:40:08;3.53;;;3.20;;
13404;SDS011;6773;51.192;7.024;2023-02-28T16:42:46;4.03;;;3.23;;
13404;SDS011;6773;51.192;7.024;2023-02-28T16:45:23;4.70;;;3.53;;
13404;SDS011;6773;51.192;7.024;2023-02-28T16:47:51;3.43;;;2.90;;
13404;SDS011;6773;51.192;7.024;2023-02-28T16:50:19;4.37;;;3.40;;
13404;SDS011;6773;51.192;7.024;2023-02-28T16:52:47;3.50;;;3.20;;
13404;SDS011;6773;51.192;7.024;2023-02-28T16:55:14;3.43;;;3.13;;
13404;SDS011;6773;51.192;7.024;2023-02-28T16:57:40;3.97;;;3.20;;
13404;SDS011;6773;51.192;7.024;2023-02-28T17:00:07;4.00;;;3.60;;
13404;SDS011;6773;51.192;7.024;2023-02-28T17:02:37;3.80;;;3.50;;
13404;SDS011;6773;51.192;7.024;2023-02-28T17:05:03;4.73;;;3.53;;
13404;SDS011;6773;51.192;7.024;2023-02-28T17:07:29;6.37;;;3.77;;
13404;SDS011;6773;51.192;7.024;2023-02-28T17:09:54;4.17;;;3.77;;
13404;SDS011;6773;51.192;7.024;2023-02-28T17:12:20;4.13;;;3.50;;
13404;SDS011;6773;51.192;7.024;2023-02-28T17:14:46;3.63;;;3.27;;
13404;SDS011;6773;51.192;7.024;2023-02-28T17:17:16;4.43;;;3.73;;
13404;SDS011;6773;51.192;7.024;2023-02-28T17:19:44;4.00;;;3.60;;
13404;SDS011;6773;51.192;7.024;2023-02-28T17:22:10;3.83;;;3.53;;
13404;SDS011;6773;51.192;7.024;2023-02-28T17:24:36;5.97;;;3.83;;
13404;SDS011;6773;51.192;7.024;2023-02-28T17:27:02;4.27;;;3.63;;
13404;SDS011;6773;51.192;7.024;2023-02-28T17:29:28;5.67;;;3.60;;
13404;SDS011;6773;51.192;7.024;2023-02-28T17:31:54;4.83;;;3.40;;
13404;SDS011;6773;51.192;7.024;2023-02-28T17:34:20;4.73;;;3.90;;
13404;SDS011;6773;51.192;7.024;2023-02-28T17:36:47;3.67;;;3.37;;
13404;SDS011;6773;51.192;7.024;2023-02-28T17:39:15;3.80;;;3.50;;
13404;SDS011;6773;51.192;7.024;2023-02-28T17:41:52;4.83;;;3.60;;
13404;SDS011;6773;51.192;7.024;2023-02-28T17:44:19;5.30;;;4.10;;
13404;SDS011;6773;51.192;7.024;2023-02-28T17:46:45;4.10;;;3.70;;
13404;SDS011;6773;51.192;7.024;2023-02-28T17:49:11;4.30;;;3.90;;
13404;SDS011;6773;51.192;7.024;2023-02-28T17:51:38;4.10;;;3.70;;
13404;SDS011;6773;51.192;7.024;2023-02-28T17:54:09;4.70;;;3.67;;
13404;SDS011;6773;51.192;7.024;2023-02-28T17:56:35;5.17;;;4.40;;
13404;SDS011;6773;51.192;7.024;2023-02-28T17:59:01;6.53;;;3.90;;
13404;SDS011;6773;51.192;7.024;2023-02-28T18:01:26;4.20;;;3.80;;
13404;SDS011;6773;51.192;7.024;2023-02-28T18:03:53;4.10;;;3.70;;
13404;SDS011;6773;51.192;7.024;2023-02-28T18:06:21;4.13;;;3.80;;